Aviation Digital Data Service (ADDS)

Output produced by METARs form (1214 UTC 26 July 2016)
found at http://aviationweather.gov/adds/metars/
 
KDAN 261123Z 2612/2712 20004KT P6SM SKC 
     FM261400 27005KT P6SM SCT045 SCT100 
     FM262100 28006KT P6SM BKN060 
     FM270200 VRB03KT P6SM SCT050 BKN120